Rio Blanco, Puerto Rico
Current Conditions -  °F | °C
As of 5:53 AM on Thursday 29 Jan 2015 (Local Time) from TJNR Reporting Station
Clear Clear  
Wind Chill: 75°   Ceiling: Unl
Heat Index: 75°   Visibility: 10mi
Dew Point: 71°   Wind: 5mph
Humidity: 87%   Direction: 60°ENE
Pressure: 30"   Gusts: NA
Location:  18.21°N, 65.79°W
Report Text: TJNR 290953Z AUTO 06004KT 10SM CLR 24/22 A3000 RMK AO2 SLP157 T02390217 $
Loading
Personal Weather Stations






























Interactive Weather Map New forecast layout! Learn more

10-Day Weather Forecast

Advertisements
Track Severe Weather on mobile